Nina — ICMG — position and weather

sailwx.info

Track history (hours):
 
Tides and Currents Weather Stations Pressure Air Temp Water Temp Dewpoint Dewpoint Depression Visibility Wind Speed Wind Dir Waves Ship Positions

Nina

Last reported at 2016-May-24 21:33 UTC. Time now 2016-May-28 08:01 UTC.
Position N 10°07' W 016°59'.

Length 180 m; draft 10.4 m.

Type: Ship (hazmat cat D). MMSI: 247239700.

Date/timePositionNaut miles runAvg speedWind from/ knotsBaromVisibWave heightAir tempDewpointWater temp
2016-May-24 21:33N 10°07' W 016°59'1412.5
2016-May-24 20:27N 10°16' W 017°10'21012.1
2016-May-24 03:07N 13°40' W 017°58'813.4
2016-May-24 02:32N 13°48' W 017°58'1713.4
2016-May-24 01:18N 14°05' W 017°57'9713.5
2016-May-23 18:06N 15°42' W 017°56'1413.9
2016-May-23 17:06N 15°56' W 017°56'  
2016-May-21 10:31N 27°33' W 015°16'1313.5
2016-May-21 09:34N 27°45' W 015°10'1313.1
2016-May-21 08:33N 27°57' W 015°05'1313.1
2016-May-21 07:33N 28°09' W 014°60'1313.4
2016-May-21 06:33N 28°22' W 014°55'1313.5
2016-May-21 05:33N 28°35' W 014°50'1413.2
2016-May-21 04:31N 28°48' W 014°47'5713.3
2016-May-21 00:12N 29°44' W 014°31'  
2016-May-17 06:28N 46°07' W 004°52'1412.6
2016-May-17 05:23N 46°14' W 004°35'1112.9
2016-May-17 04:33N 46°19' W 004°22'1613.3
2016-May-17 03:22N 46°27' W 004°02'1313.0
2016-May-17 02:20N 46°34' W 003°45'1012.8
2016-May-17 01:33N 46°39' W 003°33'1412.7
2016-May-17 00:29N 46°46' W 003°15'1213.2
2016-May-16 23:33N 46°53' W 002°60'1212.2
2016-May-16 22:33N 46°59' W 002°44'1312.3
2016-May-16 21:30N 47°04' W 002°27'9 9.7
2016-May-16 20:33N 47°11' W 002°18'10 9.0
2016-May-16 19:24N 47°18' W 002°07'1 1.2
2016-May-16 18:32N 47°18' W 002°05'0 0.0
2016-May-16 17:32N 47°18' W 002°05'0 0.0
2016-May-16 16:32N 47°18' W 002°05'0 0.0
2016-May-16 15:32N 47°18' W 002°05'0 0.0
2016-May-16 14:23N 47°18' W 002°05'0 0.0
2016-May-16 13:32N 47°18' W 002°05'0 0.0
2016-May-16 12:32N 47°18' W 002°05'0 0.0
2016-May-16 11:26N 47°18' W 002°05'0 0.0
2016-May-16 10:32N 47°18' W 002°05'0 0.0
2016-May-16 07:32N 47°18' W 002°05'0 0.0
2016-May-16 06:32N 47°18' W 002°05'0 0.0
2016-May-16 05:32N 47°18' W 002°05'0 0.0
2016-May-16 04:32N 47°18' W 002°05'0 0.0
2016-May-16 03:29N 47°18' W 002°05'0 0.0
2016-May-16 02:23N 47°18' W 002°05'0 0.0
2016-May-16 01:17N 47°18' W 002°05'0 0.0
2016-May-16 00:32N 47°18' W 002°05'0 0.0
2016-May-15 23:32N 47°18' W 002°05'0 0.0
2016-May-15 22:32N 47°18' W 002°05'0 0.0
2016-May-15 21:32N 47°18' W 002°05'0 0.0
2016-May-15 20:29N 47°18' W 002°05'0 0.0
2016-May-15 11:16N 47°18' W 002°05'0 0.0
2016-May-15 08:32N 47°18' W 002°05'0 0.0
2016-May-15 07:29N 47°18' W 002°05'0 0.0
2016-May-15 06:32N 47°18' W 002°05'0 0.0
2016-May-15 05:32N 47°18' W 002°05'0 0.0
2016-May-15 04:30N 47°18' W 002°05'0 0.0
2016-May-15 03:29N 47°18' W 002°05'0 0.0
2016-May-15 02:32N 47°18' W 002°05'0 0.0
2016-May-15 01:29N 47°18' W 002°05'0 0.0
2016-May-15 00:29N 47°18' W 002°05'0 0.0
2016-May-14 23:32N 47°18' W 002°05'0 0.0
2016-May-14 22:32N 47°18' W 002°05'  
Track history (hours):
 
Tides and Currents Weather Stations Pressure Air Temp Water Temp Dewpoint Dewpoint Depression Visibility Wind Speed Wind Dir Waves Ship Positions

Nina

Last reported at 2016-May-24 21:33 UTC. Time now 2016-May-28 08:01 UTC.
Position N 10°07' W 016°59'.

Length 180 m; draft 10.4 m.

Type: Ship (hazmat cat D). MMSI: 247239700.

Date/timePositionNaut miles runAvg speedWind from/ knotsBaromVisibWave heightAir tempDewpointWater temp
2016-May-24 21:33N 10°07' W 016°59'1412.5
2016-May-24 20:27N 10°16' W 017°10'21012.1
2016-May-24 03:07N 13°40' W 017°58'813.4
2016-May-24 02:32N 13°48' W 017°58'1713.4
2016-May-24 01:18N 14°05' W 017°57'9713.5
2016-May-23 18:06N 15°42' W 017°56'1413.9
2016-May-23 17:06N 15°56' W 017°56'  
2016-May-21 10:31N 27°33' W 015°16'1313.5
2016-May-21 09:34N 27°45' W 015°10'1313.1
2016-May-21 08:33N 27°57' W 015°05'1313.1
2016-May-21 07:33N 28°09' W 014°60'1313.4
2016-May-21 06:33N 28°22' W 014°55'1313.5
2016-May-21 05:33N 28°35' W 014°50'1413.2
2016-May-21 04:31N 28°48' W 014°47'5713.3
2016-May-21 00:12N 29°44' W 014°31'  
2016-May-17 06:28N 46°07' W 004°52'1412.6
2016-May-17 05:23N 46°14' W 004°35'1112.9
2016-May-17 04:33N 46°19' W 004°22'1613.3
2016-May-17 03:22N 46°27' W 004°02'1313.0
2016-May-17 02:20N 46°34' W 003°45'1012.8
2016-May-17 01:33N 46°39' W 003°33'1412.7
2016-May-17 00:29N 46°46' W 003°15'1213.2
2016-May-16 23:33N 46°53' W 002°60'1212.2
2016-May-16 22:33N 46°59' W 002°44'1312.3
2016-May-16 21:30N 47°04' W 002°27'9 9.7
2016-May-16 20:33N 47°11' W 002°18'10 9.0
2016-May-16 19:24N 47°18' W 002°07'1 1.2
2016-May-16 18:32N 47°18' W 002°05'0 0.0
2016-May-16 17:32N 47°18' W 002°05'0 0.0
2016-May-16 16:32N 47°18' W 002°05'0 0.0
2016-May-16 15:32N 47°18' W 002°05'0 0.0
2016-May-16 14:23N 47°18' W 002°05'0 0.0
2016-May-16 13:32N 47°18' W 002°05'0 0.0
2016-May-16 12:32N 47°18' W 002°05'0 0.0
2016-May-16 11:26N 47°18' W 002°05'0 0.0
2016-May-16 10:32N 47°18' W 002°05'0 0.0
2016-May-16 07:32N 47°18' W 002°05'0 0.0
2016-May-16 06:32N 47°18' W 002°05'0 0.0
2016-May-16 05:32N 47°18' W 002°05'0 0.0
2016-May-16 04:32N 47°18' W 002°05'0 0.0
2016-May-16 03:29N 47°18' W 002°05'0 0.0
2016-May-16 02:23N 47°18' W 002°05'0 0.0
2016-May-16 01:17N 47°18' W 002°05'0 0.0
2016-May-16 00:32N 47°18' W 002°05'0 0.0
2016-May-15 23:32N 47°18' W 002°05'0 0.0
2016-May-15 22:32N 47°18' W 002°05'0 0.0
2016-May-15 21:32N 47°18' W 002°05'0 0.0
2016-May-15 20:29N 47°18' W 002°05'0 0.0
2016-May-15 11:16N 47°18' W 002°05'0 0.0
2016-May-15 08:32N 47°18' W 002°05'0 0.0
2016-May-15 07:29N 47°18' W 002°05'0 0.0
2016-May-15 06:32N 47°18' W 002°05'0 0.0
2016-May-15 05:32N 47°18' W 002°05'0 0.0
2016-May-15 04:30N 47°18' W 002°05'0 0.0
2016-May-15 03:29N 47°18' W 002°05'0 0.0
2016-May-15 02:32N 47°18' W 002°05'0 0.0
2016-May-15 01:29N 47°18' W 002°05'0 0.0
2016-May-15 00:29N 47°18' W 002°05'0 0.0
2016-May-14 23:32N 47°18' W 002°05'0 0.0
2016-May-14 22:32N 47°18' W 002°05'  

Dump ship's entire track history